Terminal Aerodrome Forecast
Issued by NWS

Home | Current Version | Previous Version | Text Only | Print | Product List | Glossary On
Versions: 1 2 3 4 5 6 7 8 9 10 11 12 13 14 15 16 17 18 19 20 21 22
000
FTUS43 KDVN 182056 AAA
TAFBRL
TAF AMD
KBRL 182056Z 1821/1918 17015G23KT P6SM OVC200
     FM190000 17012KT P6SM BKN200 WS016/20050KT
     FM190600 17006KT 5SM -DZ BR OVC012
     FM190900 16006KT 4SM -SHRA BR OVC004
     FM191500 17010KT 2SM -SHRA BR OVC004=

USA.gov is the U.S. government's official web portal to all federal, state and local government web resources and services.